Time;durP1;ratioP1;P1;durP2;ratioP2;P2;SDS_P1;SDS_P2;PMS_P1;PMS_P2;Temp;Humidity;BMP_temperature;BMP_pressure;BME280_temperature;BME280_humidity;BME280_pressure;Samples;Min_cycle;Max_cycle;Signal;HPM_P1;HPM_P2
2021/03/06 00:00:48;;;;;;;9.77;1.73;;;;;;;;;;5021183;28;20049;-61
2021/03/06 00:03:14;;;;;;;13.02;1.70;;;;;;;;;;5022570;28;21625;-60
2021/03/06 00:05:40;;;;;;;10.07;1.48;;;;;;;;;;5021499;28;20155;-60
2021/03/06 00:08:05;;;;;;;8.93;1.63;;;;;;;;;;5022817;28;20041;-58
2021/03/06 00:10:31;;;;;;;15.45;1.95;;;;;;;;;;5015794;28;20587;-59
2021/03/06 00:12:57;;;;;;;15.85;1.60;;;;;;;;;;5020936;28;20183;-59
2021/03/06 00:15:24;;;;;;;9.82;1.50;;;;;;;;;;5021678;28;20359;-59
2021/03/06 00:17:50;;;;;;;8.57;1.42;;;;;;;;;;5021916;28;20033;-61
2021/03/06 00:20:16;;;;;;;6.05;1.60;;;;;;;;;;5022841;28;20037;-59
2021/03/06 00:22:42;;;;;;;11.20;1.65;;;;;;;;;;5020747;28;20563;-59
2021/03/06 00:25:09;;;;;;;8.77;1.50;;;;;;;;;;5020609;28;20036;-58
2021/03/06 00:27:35;;;;;;;7.28;1.70;;;;;;;;;;5023642;28;20079;-60
2021/03/06 00:30:01;;;;;;;4.53;1.45;;;;;;;;;;5024096;28;20151;-60
2021/03/06 00:32:27;;;;;;;9.90;1.92;;;;;;;;;;5007859;28;20069;-59
2021/03/06 00:34:53;;;;;;;7.18;1.55;;;;;;;;;;5022662;28;20055;-59
2021/03/06 00:37:19;;;;;;;8.30;1.80;;;;;;;;;;5022063;28;20124;-59
2021/03/06 00:39:45;;;;;;;13.48;1.83;;;;;;;;;;5021434;28;20076;-59
2021/03/06 00:42:11;;;;;;;12.35;2.10;;;;;;;;;;5022541;28;20284;-58
2021/03/06 00:44:37;;;;;;;10.10;1.98;;;;;;;;;;5021161;28;20040;-60
2021/03/06 00:47:02;;;;;;;9.23;3.22;;;;;;;;;;5021991;28;20095;-59
2021/03/06 00:49:28;;;;;;;13.65;2.00;;;;;;;;;;5021139;28;20485;-59
2021/03/06 00:51:54;;;;;;;10.38;3.28;;;;;;;;;;5021478;28;20073;-59
2021/03/06 00:54:20;;;;;;;11.13;3.50;;;;;;;;;;5025856;28;20259;-59
2021/03/06 00:56:46;;;;;;;11.00;4.20;;;;;;;;;;5028660;28;20040;-58
2021/03/06 00:59:12;;;;;;;14.45;3.35;;;;;;;;;;5029854;28;20048;-59
2021/03/06 01:01:38;;;;;;;6.97;2.40;;;;;;;;;;5028128;28;20068;-59
2021/03/06 01:04:04;;;;;;;9.57;1.70;;;;;;;;;;5030155;28;20048;-58
2021/03/06 01:06:30;;;;;;;13.98;2.53;;;;;;;;;;5030704;28;20033;-59
2021/03/06 01:08:55;;;;;;;7.78;1.80;;;;;;;;;;5032215;28;20090;-59
2021/03/06 01:11:21;;;;;;;10.95;3.08;;;;;;;;;;5031591;28;20633;-60
2021/03/06 01:13:47;;;;;;;10.35;3.08;;;;;;;;;;5032693;28;20041;-58
2021/03/06 01:16:13;;;;;;;9.85;4.35;;;;;;;;;;5014608;28;20068;-58
2021/03/06 01:18:39;;;;;;;13.88;5.55;;;;;;;;;;5028845;28;20061;-60
2021/03/06 01:21:05;;;;;;;12.80;3.88;;;;;;;;;;5032233;28;20036;-60
2021/03/06 01:23:31;;;;;;;9.77;2.03;;;;;;;;;;5030295;28;20600;-60
2021/03/06 01:25:57;;;;;;;7.38;1.52;;;;;;;;;;5013626;28;20044;-58
2021/03/06 01:28:23;;;;;;;7.55;1.40;;;;;;;;;;5029289;28;20041;-60
2021/03/06 01:30:48;;;;;;;6.40;1.65;;;;;;;;;;5031114;28;20029;-59
2021/03/06 01:33:15;;;;;;;7.03;1.77;;;;;;;;;;5031308;28;20156;-58
2021/03/06 01:35:41;;;;;;;8.55;1.60;;;;;;;;;;5029984;28;20124;-59
2021/03/06 01:38:06;;;;;;;9.23;1.95;;;;;;;;;;5032076;28;20428;-60
2021/03/06 01:40:35;;;;;;;5.18;1.60;;;;;;;;;;5030872;28;20045;-60
2021/03/06 01:43:11;;;;;;;6.38;1.60;;;;;;;;;;5030091;28;20055;-58
2021/03/06 01:45:37;;;;;;;5.72;1.60;;;;;;;;;;5027233;28;20319;-58
2021/03/06 01:48:03;;;;;;;10.75;1.77;;;;;;;;;;5029698;28;20033;-58
2021/03/06 01:50:47;;;;;;;11.35;1.95;;;;;;;;;;5030629;28;20053;-59
2021/03/06 01:53:14;;;;;;;5.93;1.60;;;;;;;;;;5034421;28;20128;-57
2021/03/06 01:55:44;;;;;;;6.90;1.95;;;;;;;;;;5024177;28;20387;-57
2021/03/06 01:58:10;;;;;;;6.38;1.65;;;;;;;;;;5025952;28;20029;-58
2021/03/06 02:00:36;;;;;;;6.38;1.60;;;;;;;;;;5024386;28;21019;-58
2021/03/06 02:03:02;;;;;;;4.13;1.35;;;;;;;;;;5025361;28;20130;-57
2021/03/06 02:05:28;;;;;;;6.20;1.60;;;;;;;;;;5025015;28;20126;-59
2021/03/06 02:07:54;;;;;;;8.05;1.27;;;;;;;;;;5026254;28;20209;-57
2021/03/06 02:10:25;;;;;;;10.48;1.95;;;;;;;;;;5022264;28;20030;-59
2021/03/06 02:12:54;;;;;;;8.48;1.65;;;;;;;;;;5026301;28;20055;-59
2021/03/06 02:15:23;;;;;;;4.80;1.27;;;;;;;;;;5023875;28;20048;-58
2021/03/06 02:17:58;;;;;;;6.63;1.63;;;;;;;;;;5024712;28;20045;-60
2021/03/06 02:20:42;;;;;;;8.18;1.60;;;;;;;;;;5024135;28;20041;-59
2021/03/06 02:23:34;;;;;;;6.70;1.38;;;;;;;;;;5025795;28;20071;-56
2021/03/06 02:26:17;;;;;;;6.97;1.52;;;;;;;;;;5024451;28;20042;-57
2021/03/06 02:29:07;;;;;;;9.80;1.58;;;;;;;;;;5023821;28;20661;-57
2021/03/06 02:31:34;;;;;;;10.20;1.48;;;;;;;;;;5023181;28;20079;-58
2021/03/06 02:34:03;;;;;;;6.28;1.50;;;;;;;;;;5026407;28;20552;-58
2021/03/06 02:36:31;;;;;;;7.15;1.33;;;;;;;;;;5023821;28;20135;-59
2021/03/06 02:38:58;;;;;;;9.45;1.42;;;;;;;;;;5025865;28;20040;-58
2021/03/06 02:41:28;;;;;;;18.30;2.20;;;;;;;;;;5023987;28;20185;-59
2021/03/06 02:43:55;;;;;;;7.30;1.50;;;;;;;;;;5026013;28;20041;-58
2021/03/06 02:46:22;;;;;;;9.77;1.60;;;;;;;;;;5024059;28;20044;-61
2021/03/06 02:48:49;;;;;;;10.02;1.83;;;;;;;;;;5025031;28;20041;-57
2021/03/06 02:51:15;;;;;;;8.68;1.73;;;;;;;;;;5025525;28;20590;-59
2021/03/06 02:53:41;;;;;;;10.23;2.00;;;;;;;;;;5024895;28;20063;-58
2021/03/06 02:56:07;;;;;;;5.97;1.98;;;;;;;;;;5034297;28;20498;-58
2021/03/06 02:58:51;;;;;;;13.68;2.58;;;;;;;;;;5023988;28;20509;-57
2021/03/06 03:01:34;;;;;;;10.57;1.95;;;;;;;;;;5020636;28;20040;-60
2021/03/06 03:04:32;;;;;;;9.63;1.90;;;;;;;;;;5030495;28;20742;-59
2021/03/06 03:07:04;;;;;;;12.82;2.28;;;;;;;;;;4996616;28;20030;-58
2021/03/06 03:09:32;;;;;;;5.93;1.67;;;;;;;;;;5024280;28;20041;-58
2021/03/06 03:12:12;;;;;;;12.25;2.03;;;;;;;;;;5023604;28;20033;-59
2021/03/06 03:14:49;;;;;;;8.95;1.95;;;;;;;;;;5022803;28;20085;-59
2021/03/06 03:17:18;;;;;;;5.93;1.45;;;;;;;;;;5023217;28;20042;-58
2021/03/06 03:20:04;;;;;;;5.88;1.70;;;;;;;;;;5023046;28;20128;-60
2021/03/06 03:22:35;;;;;;;6.78;1.90;;;;;;;;;;5024153;28;20528;-58
2021/03/06 03:25:02;;;;;;;6.22;1.80;;;;;;;;;;5028794;28;20049;-58
2021/03/06 03:27:29;;;;;;;5.63;1.63;;;;;;;;;;5024928;28;20568;-59
2021/03/06 03:29:55;;;;;;;9.25;1.88;;;;;;;;;;5026743;28;20045;-59
2021/03/06 03:32:21;;;;;;;10.80;2.13;;;;;;;;;;5024024;28;20136;-59
2021/03/06 03:34:48;;;;;;;6.55;1.80;;;;;;;;;;5024050;28;20577;-57
2021/03/06 03:37:14;;;;;;;7.50;2.35;;;;;;;;;;5025198;28;20044;-58
2021/03/06 03:39:41;;;;;;;6.45;1.77;;;;;;;;;;5023721;28;20140;-57
2021/03/06 03:42:07;;;;;;;8.55;1.77;;;;;;;;;;5022060;28;20086;-57
2021/03/06 03:44:35;;;;;;;9.10;1.73;;;;;;;;;;5023240;28;20115;-59
2021/03/06 03:47:01;;;;;;;6.93;2.00;;;;;;;;;;5023620;28;20674;-59
2021/03/06 03:49:26;;;;;;;9.00;2.00;;;;;;;;;;5025388;28;20037;-59
2021/03/06 03:51:53;;;;;;;11.38;1.90;;;;;;;;;;5032602;28;20494;-59
2021/03/06 03:54:19;;;;;;;8.77;2.30;;;;;;;;;;5031513;28;20037;-57
2021/03/06 03:56:45;;;;;;;12.52;2.08;;;;;;;;;;5028710;28;20066;-58
2021/03/06 03:59:11;;;;;;;12.10;2.15;;;;;;;;;;5025259;28;20041;-59
2021/03/06 04:01:38;;;;;;;10.70;1.52;;;;;;;;;;5026017;28;20073;-58
2021/03/06 04:04:05;;;;;;;9.63;1.70;;;;;;;;;;5025022;28;20045;-58
2021/03/06 04:06:31;;;;;;;10.57;1.85;;;;;;;;;;5023627;28;20047;-57
2021/03/06 04:08:57;;;;;;;6.38;1.75;;;;;;;;;;5027470;28;20029;-58
2021/03/06 04:11:22;;;;;;;11.10;1.60;;;;;;;;;;5029107;28;20519;-58
2021/03/06 04:13:48;;;;;;;9.73;1.58;;;;;;;;;;5026486;28;20462;-58
2021/03/06 04:16:14;;;;;;;5.32;1.58;;;;;;;;;;5024056;28;20633;-58
2021/03/06 04:18:40;;;;;;;12.15;1.52;;;;;;;;;;5024882;28;20045;-60
2021/03/06 04:21:06;;;;;;;7.65;1.50;;;;;;;;;;5027755;28;20033;-56
2021/03/06 04:23:32;;;;;;;5.57;1.60;;;;;;;;;;5022785;28;20118;-58
2021/03/06 04:25:57;;;;;;;6.03;1.70;;;;;;;;;;5031285;28;20033;-58
2021/03/06 04:28:23;;;;;;;7.97;1.33;;;;;;;;;;5029565;28;20088;-57
2021/03/06 04:30:49;;;;;;;8.20;1.50;;;;;;;;;;5031596;28;20049;-59
2021/03/06 04:33:15;;;;;;;10.98;1.60;;;;;;;;;;5032030;28;20135;-58
2021/03/06 04:35:41;;;;;;;5.28;1.52;;;;;;;;;;5029156;28;20056;-58
2021/03/06 04:38:07;;;;;;;6.32;1.65;;;;;;;;;;5030976;28;20049;-59
2021/03/06 04:40:33;;;;;;;5.03;1.48;;;;;;;;;;5027868;28;20048;-59
2021/03/06 04:42:59;;;;;;;5.10;1.48;;;;;;;;;;5029443;28;20045;-58
2021/03/06 04:45:25;;;;;;;7.32;1.38;;;;;;;;;;5029616;28;20388;-58
2021/03/06 04:47:50;;;;;;;8.30;2.45;;;;;;;;;;5032629;28;20106;-59
2021/03/06 04:50:16;;;;;;;9.40;1.67;;;;;;;;;;5029570;28;20045;-59
2021/03/06 04:52:43;;;;;;;12.27;1.90;;;;;;;;;;5029839;28;20089;-58
2021/03/06 04:55:09;;;;;;;5.13;1.38;;;;;;;;;;5030106;28;20938;-57
2021/03/06 04:57:35;;;;;;;4.35;1.27;;;;;;;;;;5031941;28;20052;-58
2021/03/06 05:00:01;;;;;;;7.68;1.58;;;;;;;;;;5032381;28;20045;-59
2021/03/06 05:02:27;;;;;;;4.68;1.42;;;;;;;;;;5032296;28;20057;-59
2021/03/06 05:04:53;;;;;;;7.55;1.52;;;;;;;;;;5031186;28;20037;-59
2021/03/06 05:07:19;;;;;;;5.93;1.73;;;;;;;;;;5029082;28;20045;-59
2021/03/06 05:09:45;;;;;;;6.70;1.50;;;;;;;;;;5027467;28;20451;-59
2021/03/06 05:12:11;;;;;;;9.82;1.60;;;;;;;;;;5030551;28;20048;-58
2021/03/06 05:14:37;;;;;;;6.65;1.50;;;;;;;;;;5028521;28;20610;-58
2021/03/06 05:17:05;;;;;;;10.60;1.63;;;;;;;;;;5030282;28;20127;-59
2021/03/06 05:19:31;;;;;;;7.15;1.65;;;;;;;;;;5030560;28;20089;-59
2021/03/06 05:21:57;;;;;;;8.65;1.70;;;;;;;;;;5028375;28;20037;-59
2021/03/06 05:24:23;;;;;;;8.13;1.40;;;;;;;;;;5026796;28;20042;-59
2021/03/06 05:27:01;;;;;;;5.05;1.60;;;;;;;;;;5032511;28;20082;-58
2021/03/06 05:29:27;;;;;;;5.95;1.50;;;;;;;;;;5028559;28;20509;-59
2021/03/06 05:31:53;;;;;;;8.07;1.70;;;;;;;;;;5030963;28;20087;-59
2021/03/06 05:34:19;;;;;;;9.75;1.80;;;;;;;;;;5028178;28;20096;-58
2021/03/06 05:36:45;;;;;;;8.95;2.22;;;;;;;;;;5033429;28;20045;-60
2021/03/06 05:39:11;;;;;;;8.57;1.60;;;;;;;;;;5018569;28;20130;-59
2021/03/06 05:41:37;;;;;;;8.00;1.80;;;;;;;;;;5033380;28;20044;-60
2021/03/06 05:44:03;;;;;;;6.45;1.42;;;;;;;;;;5032978;28;20056;-60
2021/03/06 05:46:29;;;;;;;7.38;1.52;;;;;;;;;;5029789;28;20045;-57
2021/03/06 05:48:55;;;;;;;6.60;1.50;;;;;;;;;;5030831;28;20110;-57
2021/03/06 05:51:22;;;;;;;6.97;1.70;;;;;;;;;;5031568;28;21129;-59
2021/03/06 05:53:49;;;;;;;10.60;2.25;;;;;;;;;;5032546;28;20037;-59
2021/03/06 05:56:16;;;;;;;5.03;1.90;;;;;;;;;;5035366;28;20738;-58
2021/03/06 05:58:43;;;;;;;9.15;1.80;;;;;;;;;;5034420;28;20049;-59
2021/03/06 06:01:12;;;;;;;9.32;2.45;;;;;;;;;;5034316;28;20048;-59
2021/03/06 06:03:39;;;;;;;6.95;2.50;;;;;;;;;;5035644;28;20045;-56
2021/03/06 06:06:06;;;;;;;5.13;1.80;;;;;;;;;;5034437;28;20609;-57
2021/03/06 06:08:34;;;;;;;6.57;2.05;;;;;;;;;;5032906;28;20099;-58
2021/03/06 06:11:00;;;;;;;7.43;1.70;;;;;;;;;;5033306;28;20037;-57
2021/03/06 06:13:26;;;;;;;5.70;1.55;;;;;;;;;;5035366;28;20069;-57
2021/03/06 06:15:55;;;;;;;6.78;1.40;;;;;;;;;;5033643;28;20451;-58
2021/03/06 06:18:21;;;;;;;4.05;1.50;;;;;;;;;;5032078;28;20044;-60
2021/03/06 06:20:47;;;;;;;9.38;1.60;;;;;;;;;;5011563;28;20037;-59
2021/03/06 06:23:17;;;;;;;8.77;1.83;;;;;;;;;;5035116;28;20519;-58
2021/03/06 06:25:47;;;;;;;9.25;1.77;;;;;;;;;;5032709;28;20041;-59
2021/03/06 06:28:12;;;;;;;8.13;1.52;;;;;;;;;;5015931;28;20321;-60
2021/03/06 06:30:38;;;;;;;6.97;1.45;;;;;;;;;;5031649;28;20144;-60
2021/03/06 06:33:04;;;;;;;5.53;1.67;;;;;;;;;;5033162;28;20079;-59
2021/03/06 06:35:39;;;;;;;5.07;1.65;;;;;;;;;;5029500;28;20053;-59
2021/03/06 06:38:05;;;;;;;8.07;1.73;;;;;;;;;;5031262;28;20034;-60
2021/03/06 06:40:33;;;;;;;6.25;1.73;;;;;;;;;;5031076;28;20037;-59
2021/03/06 06:42:59;;;;;;;6.93;1.77;;;;;;;;;;5031527;28;20075;-59
2021/03/06 06:45:25;;;;;;;8.98;1.80;;;;;;;;;;5029869;28;20071;-59
2021/03/06 06:47:52;;;;;;;6.97;1.85;;;;;;;;;;5031652;28;20041;-57
2021/03/06 06:50:29;;;;;;;10.45;1.80;;;;;;;;;;5029178;28;20397;-59
2021/03/06 06:52:54;;;;;;;5.85;2.00;;;;;;;;;;5032760;28;20033;-59
2021/03/06 06:55:20;;;;;;;10.05;2.30;;;;;;;;;;5030212;28;20041;-59
2021/03/06 06:57:50;;;;;;;4.40;1.75;;;;;;;;;;5031295;28;20128;-59
2021/03/06 07:00:16;;;;;;;7.82;2.30;;;;;;;;;;5030991;28;20132;-52
2021/03/06 07:02:53;;;;;;;9.18;2.00;;;;;;;;;;5030339;28;20402;-59
2021/03/06 07:05:29;;;;;;;5.28;1.80;;;;;;;;;;5009683;28;20071;-60
2021/03/06 07:07:56;;;;;;;6.68;1.90;;;;;;;;;;5031964;28;22771;-59
2021/03/06 07:10:22;;;;;;;5.68;1.77;;;;;;;;;;5030854;28;20045;-59
2021/03/06 07:12:58;;;;;;;10.32;1.83;;;;;;;;;;5032966;28;20113;-59
2021/03/06 07:15:25;;;;;;;6.38;1.75;;;;;;;;;;5031109;28;20056;-58
2021/03/06 07:17:52;;;;;;;10.60;1.73;;;;;;;;;;5031565;28;20573;-59
2021/03/06 07:20:24;;;;;;;5.07;1.40;;;;;;;;;;5031431;28;20052;-59
2021/03/06 07:22:49;;;;;;;7.43;1.63;;;;;;;;;;5030066;28;20076;-59
2021/03/06 07:25:15;;;;;;;10.23;1.70;;;;;;;;;;5030049;28;20906;-59
2021/03/06 07:27:42;;;;;;;6.40;1.52;;;;;;;;;;5032182;28;20155;-59
2021/03/06 07:30:08;;;;;;;6.78;1.80;;;;;;;;;;5032539;28;20118;-59
2021/03/06 07:32:37;;;;;;;5.93;1.70;;;;;;;;;;5030169;28;20052;-59
2021/03/06 07:35:08;;;;;;;6.50;1.45;;;;;;;;;;5010843;28;20103;-59
2021/03/06 07:37:35;;;;;;;8.10;1.55;;;;;;;;;;5030018;28;20048;-58
2021/03/06 07:40:03;;;;;;;5.80;1.80;;;;;;;;;;5030696;28;20632;-59
2021/03/06 07:42:29;;;;;;;5.40;1.70;;;;;;;;;;5030839;28;20061;-59
2021/03/06 07:44:55;;;;;;;7.97;2.30;;;;;;;;;;5030854;28;20148;-58
2021/03/06 07:47:24;;;;;;;5.00;1.70;;;;;;;;;;5032734;28;20665;-58
2021/03/06 07:49:51;;;;;;;5.25;1.80;;;;;;;;;;5029601;28;20098;-58
2021/03/06 07:52:18;;;;;;;6.65;1.58;;;;;;;;;;5029978;28;20030;-60
2021/03/06 07:54:44;;;;;;;4.40;1.48;;;;;;;;;;5015933;28;20080;-60
2021/03/06 07:57:10;;;;;;;5.43;1.80;;;;;;;;;;5030897;28;20513;-58
2021/03/06 07:59:49;;;;;;;7.13;1.70;;;;;;;;;;5029844;28;20048;-60
2021/03/06 08:02:33;;;;;;;8.38;1.63;;;;;;;;;;5031304;28;20033;-58
2021/03/06 08:04:59;;;;;;;6.78;1.75;;;;;;;;;;5029227;28;20076;-59
2021/03/06 08:07:38;;;;;;;4.88;1.52;;;;;;;;;;5030066;28;20040;-59
2021/03/06 08:10:05;;;;;;;5.65;1.40;;;;;;;;;;5031790;28;21102;-59
2021/03/06 08:12:31;;;;;;;5.45;1.58;;;;;;;;;;5029933;28;20029;-59
2021/03/06 08:14:57;;;;;;;3.83;1.48;;;;;;;;;;5029099;28;20107;-59
2021/03/06 08:17:33;;;;;;;5.28;1.23;;;;;;;;;;5028952;28;20034;-58
2021/03/06 08:19:59;;;;;;;6.28;1.40;;;;;;;;;;5029980;28;20033;-59
2021/03/06 08:22:25;;;;;;;7.10;1.30;;;;;;;;;;5030394;28;20746;-59
2021/03/06 08:24:51;;;;;;;7.85;1.40;;;;;;;;;;5028664;28;20045;-59
2021/03/06 08:27:18;;;;;;;4.63;1.27;;;;;;;;;;5030294;28;20036;-59
2021/03/06 08:29:45;;;;;;;2.90;1.10;;;;;;;;;;5031062;28;20041;-59
2021/03/06 08:32:30;;;;;;;4.97;1.20;;;;;;;;;;5028567;28;20044;-61
2021/03/06 08:35:17;;;;;;;4.43;1.15;;;;;;;;;;5028039;28;20067;-59
2021/03/06 08:37:43;;;;;;;4.97;1.38;;;;;;;;;;5029461;28;20633;-56
2021/03/06 08:40:09;;;;;;;4.45;1.20;;;;;;;;;;5030366;28;20310;-57
2021/03/06 08:42:39;;;;;;;3.33;1.40;;;;;;;;;;5028371;28;20094;-57
2021/03/06 08:45:07;;;;;;;5.30;1.30;;;;;;;;;;5028915;28;20091;-57
2021/03/06 08:47:40;;;;;;;6.80;1.33;;;;;;;;;;5027826;28;20041;-57
2021/03/06 08:50:12;;;;;;;3.67;1.25;;;;;;;;;;5029822;28;20044;-56
2021/03/06 08:52:39;;;;;;;7.33;1.20;;;;;;;;;;5027417;28;20045;-56
2021/03/06 08:55:06;;;;;;;3.70;1.23;;;;;;;;;;5028664;28;20509;-57
2021/03/06 08:57:38;;;;;;;4.18;1.10;;;;;;;;;;5027418;28;20044;-56
2021/03/06 09:00:24;;;;;;;4.85;1.08;;;;;;;;;;5028099;28;20167;-57
2021/03/06 09:02:51;;;;;;;11.18;1.30;;;;;;;;;;5026858;28;20188;-57
2021/03/06 09:05:19;;;;;;;5.13;1.05;;;;;;;;;;5028864;28;20044;-58
2021/03/06 09:07:46;;;;;;;5.47;1.25;;;;;;;;;;5029259;28;20029;-58
2021/03/06 09:10:15;;;;;;;4.78;1.40;;;;;;;;;;5028731;28;20052;-58
2021/03/06 09:12:45;;;;;;;4.72;1.20;;;;;;;;;;5028873;28;20122;-58
2021/03/06 09:15:11;;;;;;;6.30;1.52;;;;;;;;;;5027730;28;20040;-55
2021/03/06 09:17:38;;;;;;;6.85;1.50;;;;;;;;;;5028380;28;20036;-58
2021/03/06 09:20:04;;;;;;;5.70;1.60;;;;;;;;;;5027611;28;20156;-58
2021/03/06 09:22:39;;;;;;;5.93;1.50;;;;;;;;;;5027830;28;20037;-57
2021/03/06 09:25:05;;;;;;;5.00;1.67;;;;;;;;;;5028036;28;20029;-58
2021/03/06 09:27:41;;;;;;;6.60;1.38;;;;;;;;;;5027226;28;20040;-59
2021/03/06 09:30:19;;;;;;;4.45;1.30;;;;;;;;;;5027963;28;20039;-57
2021/03/06 09:32:45;;;;;;;3.90;1.10;;;;;;;;;;5029459;28;20091;-59
2021/03/06 09:35:14;;;;;;;3.72;1.38;;;;;;;;;;5028130;28;20136;-59
2021/03/06 09:37:40;;;;;;;4.65;1.25;;;;;;;;;;5029439;28;20545;-58
2021/03/06 09:40:15;;;;;;;3.70;1.10;;;;;;;;;;5028448;28;20045;-58
2021/03/06 09:42:42;;;;;;;5.80;1.20;;;;;;;;;;5028875;28;20400;-58
2021/03/06 09:45:08;;;;;;;6.38;1.20;;;;;;;;;;5028070;28;20444;-58
2021/03/06 09:47:34;;;;;;;7.00;1.00;;;;;;;;;;5029230;28;20116;-58
2021/03/06 09:50:00;;;;;;;6.15;1.50;;;;;;;;;;5028970;28;20045;-59
2021/03/06 09:52:32;;;;;;;8.20;1.17;;;;;;;;;;5026931;28;20079;-59
2021/03/06 09:54:58;;;;;;;4.82;1.40;;;;;;;;;;5027464;28;20144;-58
2021/03/06 09:57:25;;;;;;;3.97;1.20;;;;;;;;;;5029570;28;20044;-58
2021/03/06 09:59:50;;;;;;;3.67;1.33;;;;;;;;;;5027673;28;20040;-58
2021/03/06 10:02:22;;;;;;;4.32;1.45;;;;;;;;;;5027861;28;20111;-58
2021/03/06 10:04:49;;;;;;;5.00;1.38;;;;;;;;;;5027233;28;20033;-58
2021/03/06 10:07:15;;;;;;;5.18;1.38;;;;;;;;;;5013242;28;20041;-58
2021/03/06 10:09:41;;;;;;;4.55;1.55;;;;;;;;;;5027005;28;20520;-58
2021/03/06 10:12:13;;;;;;;3.90;1.33;;;;;;;;;;5027704;28;20401;-58
2021/03/06 10:14:39;;;;;;;5.72;1.20;;;;;;;;;;5031952;28;20060;-56
2021/03/06 10:17:06;;;;;;;4.57;1.10;;;;;;;;;;5030537;28;20041;-58
2021/03/06 10:19:33;;;;;;;3.65;1.20;;;;;;;;;;5033123;28;20452;-58
2021/03/06 10:22:00;;;;;;;4.90;1.40;;;;;;;;;;5031056;28;20062;-58
2021/03/06 10:24:26;;;;;;;5.53;1.25;;;;;;;;;;5030405;28;20040;-58
2021/03/06 10:26:59;;;;;;;3.70;1.70;;;;;;;;;;5032057;28;20037;-59
2021/03/06 10:29:26;;;;;;;4.50;1.45;;;;;;;;;;5030611;28;20116;-57
2021/03/06 10:32:00;;;;;;;3.80;1.10;;;;;;;;;;5031261;28;20033;-59
2021/03/06 10:34:27;;;;;;;3.85;1.17;;;;;;;;;;5030670;28;20091;-59
2021/03/06 10:37:11;;;;;;;3.95;1.25;;;;;;;;;;5031320;28;20132;-59
2021/03/06 10:39:53;;;;;;;4.20;1.35;;;;;;;;;;5031533;28;20042;-60
2021/03/06 10:42:18;;;;;;;3.45;1.30;;;;;;;;;;5030588;28;20120;-57
2021/03/06 10:44:44;;;;;;;4.65;1.55;;;;;;;;;;5029508;28;20260;-58
2021/03/06 10:47:10;;;;;;;3.22;1.30;;;;;;;;;;5031137;28;20541;-57
2021/03/06 10:49:41;;;;;;;4.97;1.40;;;;;;;;;;5029863;28;20049;-58
2021/03/06 10:52:21;;;;;;;3.97;1.10;;;;;;;;;;5031006;28;20088;-58
2021/03/06 10:54:51;;;;;;;3.15;1.08;;;;;;;;;;5020250;28;20037;-56
2021/03/06 10:57:17;;;;;;;3.95;1.10;;;;;;;;;;5032681;28;20086;-58
2021/03/06 10:59:43;;;;;;;4.45;1.10;;;;;;;;;;5031190;28;22010;-58
2021/03/06 11:02:22;;;;;;;4.80;1.30;;;;;;;;;;5031304;28;20046;-57
2021/03/06 11:04:48;;;;;;;4.80;1.05;;;;;;;;;;5029024;28;20025;-58
2021/03/06 11:07:14;;;;;;;5.28;1.20;;;;;;;;;;5031444;28;20037;-59
2021/03/06 11:09:40;;;;;;;4.07;1.30;;;;;;;;;;5030741;28;20718;-59
2021/03/06 11:12:18;;;;;;;4.28;1.20;;;;;;;;;;5026974;28;20646;-58
2021/03/06 11:14:44;;;;;;;7.43;1.08;;;;;;;;;;5030453;28;20040;-58
2021/03/06 11:17:17;;;;;;;3.78;1.20;;;;;;;;;;5030773;28;20033;-60
2021/03/06 11:19:43;;;;;;;4.40;1.27;;;;;;;;;;5028805;28;20509;-58
2021/03/06 11:22:12;;;;;;;3.55;1.15;;;;;;;;;;5033032;28;20851;-58
2021/03/06 11:24:38;;;;;;;3.25;1.10;;;;;;;;;;5034768;28;20222;-59
2021/03/06 11:27:04;;;;;;;3.65;1.17;;;;;;;;;;5035527;28;20029;-56
2021/03/06 11:29:30;;;;;;;5.30;1.40;;;;;;;;;;5034275;28;20132;-58
2021/03/06 11:31:56;;;;;;;4.72;1.20;;;;;;;;;;5036045;28;20048;-58
2021/03/06 11:34:24;;;;;;;3.08;1.10;;;;;;;;;;5009183;28;20043;-59
2021/03/06 11:36:51;;;;;;;6.68;1.00;;;;;;;;;;5035054;28;20160;-57
2021/03/06 11:39:16;;;;;;;5.40;1.20;;;;;;;;;;5034153;28;20803;-56
2021/03/06 11:41:42;;;;;;;5.63;1.45;;;;;;;;;;5034277;28;20098;-58
2021/03/06 11:44:09;;;;;;;4.25;1.30;;;;;;;;;;5033737;28;20033;-59
2021/03/06 11:46:35;;;;;;;6.82;1.33;;;;;;;;;;5034532;28;20385;-59
2021/03/06 11:49:01;;;;;;;4.68;1.42;;;;;;;;;;5033504;28;20045;-58
2021/03/06 11:51:27;;;;;;;4.57;1.33;;;;;;;;;;5031357;28;20544;-59
2021/03/06 11:53:53;;;;;;;3.92;1.60;;;;;;;;;;5032966;28;20052;-59
2021/03/06 11:56:19;;;;;;;3.50;1.33;;;;;;;;;;5031608;28;20076;-58
2021/03/06 11:58:45;;;;;;;6.53;1.55;;;;;;;;;;5034919;28;20025;-58
2021/03/06 12:01:11;;;;;;;5.20;1.55;;;;;;;;;;5032754;28;20043;-59
2021/03/06 12:03:37;;;;;;;8.07;1.75;;;;;;;;;;5024324;28;20044;-58
2021/03/06 12:06:03;;;;;;;4.28;1.80;;;;;;;;;;5034002;28;20305;-58
2021/03/06 12:08:28;;;;;;;7.10;1.67;;;;;;;;;;5033545;28;22024;-58
2021/03/06 12:10:54;;;;;;;4.82;1.70;;;;;;;;;;5033075;28;20037;-59
2021/03/06 12:13:20;;;;;;;3.88;1.30;;;;;;;;;;5030934;28;20045;-58
2021/03/06 12:15:46;;;;;;;4.43;1.35;;;;;;;;;;5032781;28;20045;-58
2021/03/06 12:18:12;;;;;;;5.75;1.52;;;;;;;;;;5033232;28;20382;-58
2021/03/06 12:20:38;;;;;;;5.60;1.20;;;;;;;;;;5033281;28;20060;-59
2021/03/06 12:23:04;;;;;;;3.38;1.20;;;;;;;;;;5033765;28;20906;-58
2021/03/06 12:25:29;;;;;;;4.32;1.20;;;;;;;;;;5013085;28;20516;-58
2021/03/06 12:27:55;;;;;;;3.60;1.10;;;;;;;;;;5034077;28;20091;-58
2021/03/06 12:30:22;;;;;;;3.70;1.40;;;;;;;;;;5032260;28;20088;-58
2021/03/06 12:32:50;;;;;;;4.25;1.20;;;;;;;;;;5031860;28;20747;-58
2021/03/06 12:35:17;;;;;;;3.05;0.90;;;;;;;;;;5030942;28;20128;-58
2021/03/06 12:37:43;;;;;;;3.70;1.30;;;;;;;;;;5029536;28;20061;-58
2021/03/06 12:40:09;;;;;;;5.40;1.30;;;;;;;;;;5031347;28;20047;-58
2021/03/06 12:42:35;;;;;;;5.25;1.10;;;;;;;;;;5030635;28;20037;-56
2021/03/06 12:45:02;;;;;;;4.80;1.67;;;;;;;;;;5028934;28;20052;-58
2021/03/06 12:47:28;;;;;;;4.75;1.25;;;;;;;;;;5032258;28;20041;-58
2021/03/06 12:49:53;;;;;;;2.80;1.00;;;;;;;;;;5032743;28;20057;-58
2021/03/06 12:52:19;;;;;;;3.08;0.85;;;;;;;;;;5032244;28;20040;-57
2021/03/06 12:54:45;;;;;;;5.68;1.65;;;;;;;;;;5031146;28;20041;-58
2021/03/06 12:57:11;;;;;;;4.55;1.30;;;;;;;;;;5031320;28;20053;-55
2021/03/06 12:59:37;;;;;;;4.00;1.10;;;;;;;;;;5030895;28;20068;-57
2021/03/06 13:02:03;;;;;;;3.80;1.02;;;;;;;;;;5031461;28;20099;-58
2021/03/06 13:04:29;;;;;;;4.00;0.88;;;;;;;;;;5031227;28;20041;-58
2021/03/06 13:06:54;;;;;;;3.63;1.00;;;;;;;;;;5031556;28;20059;-59
2021/03/06 13:09:21;;;;;;;3.30;0.98;;;;;;;;;;5031572;28;20369;-59
2021/03/06 13:11:47;;;;;;;4.40;1.00;;;;;;;;;;5031414;28;20158;-59
2021/03/06 13:14:12;;;;;;;5.28;1.05;;;;;;;;;;5031788;28;20474;-59
2021/03/06 13:16:39;;;;;;;3.65;1.00;;;;;;;;;;5028948;28;20132;-59
2021/03/06 13:19:04;;;;;;;4.13;0.90;;;;;;;;;;5033274;28;20041;-59
2021/03/06 13:21:30;;;;;;;3.72;1.00;;;;;;;;;;5030506;28;20200;-59
2021/03/06 13:23:56;;;;;;;4.40;1.15;;;;;;;;;;5031595;28;20037;-59
2021/03/06 13:26:23;;;;;;;10.40;1.65;;;;;;;;;;5029832;28;20124;-59
2021/03/06 13:28:50;;;;;;;6.90;1.50;;;;;;;;;;5028329;28;20049;-57
2021/03/06 13:31:15;;;;;;;7.95;1.90;;;;;;;;;;5029252;28;20120;-58
2021/03/06 13:33:41;;;;;;;12.27;1.80;;;;;;;;;;5030717;28;20863;-57
2021/03/06 13:36:07;;;;;;;7.95;1.67;;;;;;;;;;5032280;28;20078;-58
2021/03/06 13:38:33;;;;;;;7.85;1.20;;;;;;;;;;5029297;28;20045;-58
2021/03/06 13:40:59;;;;;;;7.90;1.48;;;;;;;;;;5029384;28;20061;-58
2021/03/06 13:43:25;;;;;;;7.57;1.60;;;;;;;;;;5030229;28;20053;-57
2021/03/06 13:45:51;;;;;;;7.22;1.35;;;;;;;;;;5030732;28;20045;-58
2021/03/06 13:48:17;;;;;;;7.18;1.30;;;;;;;;;;5031774;28;20048;-59
2021/03/06 13:50:42;;;;;;;16.65;1.77;;;;;;;;;;5034716;28;20049;-58
2021/03/06 13:53:08;;;;;;;14.15;1.45;;;;;;;;;;5035215;28;20128;-58
2021/03/06 13:55:34;;;;;;;8.85;1.60;;;;;;;;;;5035576;28;20079;-58
2021/03/06 13:58:00;;;;;;;7.45;1.33;;;;;;;;;;5036150;28;20033;-58
2021/03/06 14:00:26;;;;;;;8.32;1.70;;;;;;;;;;5034006;28;20085;-57
2021/03/06 14:02:52;;;;;;;8.85;1.70;;;;;;;;;;5034055;28;21736;-58
2021/03/06 14:05:18;;;;;;;8.57;1.50;;;;;;;;;;5033716;28;20482;-59
2021/03/06 14:07:44;;;;;;;9.15;1.55;;;;;;;;;;5034485;28;20055;-58
2021/03/06 14:10:12;;;;;;;9.80;1.90;;;;;;;;;;5032775;28;20194;-59
2021/03/06 14:12:38;;;;;;;6.00;1.83;;;;;;;;;;5029951;28;20072;-58
2021/03/06 14:15:04;;;;;;;7.90;1.70;;;;;;;;;;5036325;28;20555;-57
2021/03/06 14:17:30;;;;;;;10.25;1.63;;;;;;;;;;5034986;28;20041;-56
2021/03/06 14:19:56;;;;;;;13.95;1.73;;;;;;;;;;5028720;28;20120;-57
2021/03/06 14:22:22;;;;;;;7.30;1.77;;;;;;;;;;5031938;28;20043;-58
2021/03/06 14:24:48;;;;;;;11.98;2.03;;;;;;;;;;5027483;28;20090;-59
2021/03/06 14:27:13;;;;;;;9.30;1.98;;;;;;;;;;5035208;28;20067;-58
2021/03/06 14:29:39;;;;;;;10.20;2.30;;;;;;;;;;5039550;28;20041;-59
2021/03/06 14:32:05;;;;;;;12.13;2.33;;;;;;;;;;5036754;28;20048;-59
2021/03/06 14:34:31;;;;;;;16.58;2.00;;;;;;;;;;5035931;28;20041;-59
2021/03/06 14:36:57;;;;;;;17.27;1.95;;;;;;;;;;5035878;28;20059;-59
2021/03/06 14:39:23;;;;;;;21.00;2.30;;;;;;;;;;5032492;28;20419;-59
2021/03/06 14:41:49;;;;;;;9.15;1.90;;;;;;;;;;5034480;28;20049;-59
2021/03/06 14:44:15;;;;;;;12.10;1.90;;;;;;;;;;5034074;28;20073;-59